sensor_id;sensor_type;location;lat;lon;timestamp;pressure;altitude;pressure_sealevel;temperature
68743;BMP180;55725;42.758;26.702;2023-02-23T00:00:51;99271.00;;;4.50
68743;BMP180;55725;42.758;26.702;2023-02-23T00:02:32;99276.00;;;4.70
68743;BMP180;55725;42.758;26.702;2023-02-23T00:04:12;99266.00;;;4.70
68743;BMP180;55725;42.758;26.702;2023-02-23T00:05:52;99264.00;;;4.80
68743;BMP180;55725;42.758;26.702;2023-02-23T00:07:33;99272.00;;;4.00
68743;BMP180;55725;42.758;26.702;2023-02-23T00:09:13;99270.00;;;4.70
68743;BMP180;55725;42.758;26.702;2023-02-23T00:11:06;99270.00;;;4.00
68743;BMP180;55725;42.758;26.702;2023-02-23T00:12:47;99264.00;;;4.10
68743;BMP180;55725;42.758;26.702;2023-02-23T00:14:28;99265.00;;;3.60
68743;BMP180;55725;42.758;26.702;2023-02-23T00:16:11;99269.00;;;3.60
68743;BMP180;55725;42.758;26.702;2023-02-23T00:17:53;99272.00;;;4.20
68743;BMP180;55725;42.758;26.702;2023-02-23T00:19:34;99274.00;;;4.30
68743;BMP180;55725;42.758;26.702;2023-02-23T00:21:17;99280.00;;;3.60
68743;BMP180;55725;42.758;26.702;2023-02-23T00:22:58;99276.00;;;4.20
68743;BMP180;55725;42.758;26.702;2023-02-23T00:24:38;99276.00;;;4.50
68743;BMP180;55725;42.758;26.702;2023-02-23T00:26:22;99286.00;;;4.20
68743;BMP180;55725;42.758;26.702;2023-02-23T00:28:03;99277.00;;;3.40
68743;BMP180;55725;42.758;26.702;2023-02-23T00:29:47;99279.00;;;3.50
68743;BMP180;55725;42.758;26.702;2023-02-23T00:31:28;99271.00;;;3.80
68743;BMP180;55725;42.758;26.702;2023-02-23T00:33:08;99275.00;;;3.70
68743;BMP180;55725;42.758;26.702;2023-02-23T00:34:49;99277.00;;;3.00
68743;BMP180;55725;42.758;26.702;2023-02-23T00:36:30;99275.00;;;3.40
68743;BMP180;55725;42.758;26.702;2023-02-23T00:38:10;99281.00;;;3.80
68743;BMP180;55725;42.758;26.702;2023-02-23T00:39:53;99266.00;;;3.50
68743;BMP180;55725;42.758;26.702;2023-02-23T00:41:33;99272.00;;;3.50
68743;BMP180;55725;42.758;26.702;2023-02-23T00:43:13;99266.00;;;3.40
68743;BMP180;55725;42.758;26.702;2023-02-23T00:44:54;99271.00;;;3.40
68743;BMP180;55725;42.758;26.702;2023-02-23T00:46:34;99263.00;;;3.50
68743;BMP180;55725;42.758;26.702;2023-02-23T00:48:14;99274.00;;;4.00
68743;BMP180;55725;42.758;26.702;2023-02-23T00:49:55;99267.00;;;4.30
68743;BMP180;55725;42.758;26.702;2023-02-23T00:51:37;99269.00;;;4.30
68743;BMP180;55725;42.758;26.702;2023-02-23T00:53:18;99266.00;;;4.00
68743;BMP180;55725;42.758;26.702;2023-02-23T00:54:58;99264.00;;;3.50
68743;BMP180;55725;42.758;26.702;2023-02-23T00:56:38;99261.00;;;4.00
68743;BMP180;55725;42.758;26.702;2023-02-23T00:58:19;99269.00;;;3.70
68743;BMP180;55725;42.758;26.702;2023-02-23T00:59:59;99273.00;;;3.80
68743;BMP180;55725;42.758;26.702;2023-02-23T01:01:40;99271.00;;;4.10
68743;BMP180;55725;42.758;26.702;2023-02-23T01:03:20;99268.00;;;4.20
68743;BMP180;55725;42.758;26.702;2023-02-23T01:05:01;99266.00;;;4.30
68743;BMP180;55725;42.758;26.702;2023-02-23T01:06:41;99265.00;;;4.00
68743;BMP180;55725;42.758;26.702;2023-02-23T01:08:22;99264.00;;;4.30
68743;BMP180;55725;42.758;26.702;2023-02-23T01:10:03;99269.00;;;4.50
68743;BMP180;55725;42.758;26.702;2023-02-23T01:11:57;99259.00;;;4.00
68743;BMP180;55725;42.758;26.702;2023-02-23T01:13:41;99265.00;;;3.40
68743;BMP180;55725;42.758;26.702;2023-02-23T01:15:22;99261.00;;;4.20
68743;BMP180;55725;42.758;26.702;2023-02-23T01:17:02;99263.00;;;4.20
68743;BMP180;55725;42.758;26.702;2023-02-23T01:18:43;99263.00;;;3.50
68743;BMP180;55725;42.758;26.702;2023-02-23T01:20:24;99255.00;;;3.60
68743;BMP180;55725;42.758;26.702;2023-02-23T01:22:04;99257.00;;;3.40
68743;BMP180;55725;42.758;26.702;2023-02-23T01:23:44;99269.00;;;3.40
68743;BMP180;55725;42.758;26.702;2023-02-23T01:25:25;99262.00;;;3.90
68743;BMP180;55725;42.758;26.702;2023-02-23T01:27:07;99252.00;;;3.90
68743;BMP180;55725;42.758;26.702;2023-02-23T01:28:48;99257.00;;;4.20
68743;BMP180;55725;42.758;26.702;2023-02-23T01:30:28;99266.00;;;3.60
68743;BMP180;55725;42.758;26.702;2023-02-23T01:32:08;99262.00;;;4.00
68743;BMP180;55725;42.758;26.702;2023-02-23T01:33:56;99260.00;;;4.00
68743;BMP180;55725;42.758;26.702;2023-02-23T01:35:36;99266.00;;;3.50
68743;BMP180;55725;42.758;26.702;2023-02-23T01:37:17;99266.00;;;3.70
68743;BMP180;55725;42.758;26.702;2023-02-23T01:38:57;99258.00;;;3.10
68743;BMP180;55725;42.758;26.702;2023-02-23T01:40:41;99267.00;;;3.70
68743;BMP180;55725;42.758;26.702;2023-02-23T01:42:21;99265.00;;;4.10
68743;BMP180;55725;42.758;26.702;2023-02-23T01:44:06;99266.00;;;3.80
68743;BMP180;55725;42.758;26.702;2023-02-23T01:45:46;99260.00;;;3.30
68743;BMP180;55725;42.758;26.702;2023-02-23T01:47:26;99262.00;;;3.20
68743;BMP180;55725;42.758;26.702;2023-02-23T01:49:07;99266.00;;;3.30
68743;BMP180;55725;42.758;26.702;2023-02-23T01:52:29;99267.00;;;3.80
68743;BMP180;55725;42.758;26.702;2023-02-23T01:54:13;99263.00;;;4.00
68743;BMP180;55725;42.758;26.702;2023-02-23T01:55:58;99264.00;;;3.80
68743;BMP180;55725;42.758;26.702;2023-02-23T01:57:39;99264.00;;;3.50
68743;BMP180;55725;42.758;26.702;2023-02-23T01:59:19;99254.00;;;3.60
68743;BMP180;55725;42.758;26.702;2023-02-23T02:01:00;99260.00;;;3.60
68743;BMP180;55725;42.758;26.702;2023-02-23T02:02:43;99261.00;;;3.40
68743;BMP180;55725;42.758;26.702;2023-02-23T02:04:23;99269.00;;;3.70
68743;BMP180;55725;42.758;26.702;2023-02-23T02:06:05;99265.00;;;3.40
68743;BMP180;55725;42.758;26.702;2023-02-23T02:07:48;99256.00;;;3.80
68743;BMP180;55725;42.758;26.702;2023-02-23T02:09:38;99252.00;;;3.60
68743;BMP180;55725;42.758;26.702;2023-02-23T02:11:20;99253.00;;;4.00
68743;BMP180;55725;42.758;26.702;2023-02-23T02:13:10;99256.00;;;3.30
68743;BMP180;55725;42.758;26.702;2023-02-23T02:14:53;99259.00;;;3.30
68743;BMP180;55725;42.758;26.702;2023-02-23T02:16:40;99259.00;;;3.20
68743;BMP180;55725;42.758;26.702;2023-02-23T02:18:38;99262.00;;;3.70
68743;BMP180;55725;42.758;26.702;2023-02-23T02:20:34;99259.00;;;4.00
68743;BMP180;55725;42.758;26.702;2023-02-23T02:29:52;99258.00;;;3.20
68743;BMP180;55725;42.758;26.702;2023-02-23T02:31:54;99260.00;;;2.70
68743;BMP180;55725;42.758;26.702;2023-02-23T02:37:43;99266.00;;;2.80
68743;BMP180;55725;42.758;26.702;2023-02-23T02:41:37;99265.00;;;2.80
68743;BMP180;55725;42.758;26.702;2023-02-23T02:45:50;99269.00;;;3.00
68743;BMP180;55725;42.758;26.702;2023-02-23T02:47:40;99271.00;;;2.80
68743;BMP180;55725;42.758;26.702;2023-02-23T02:49:25;99272.00;;;2.40
68743;BMP180;55725;42.758;26.702;2023-02-23T02:51:20;99275.00;;;2.80
68743;BMP180;55725;42.758;26.702;2023-02-23T02:53:02;99274.00;;;3.00
68743;BMP180;55725;42.758;26.702;2023-02-23T02:55:27;99270.00;;;2.70
68743;BMP180;55725;42.758;26.702;2023-02-23T02:56:51;99272.00;;;2.40
68743;BMP180;55725;42.758;26.702;2023-02-23T02:58:36;99277.00;;;2.30
68743;BMP180;55725;42.758;26.702;2023-02-23T03:00:18;99278.00;;;2.20
68743;BMP180;55725;42.758;26.702;2023-02-23T03:02:18;99278.00;;;2.70
68743;BMP180;55725;42.758;26.702;2023-02-23T03:04:22;99281.00;;;2.70
68743;BMP180;55725;42.758;26.702;2023-02-23T03:06:32;99274.00;;;3.00
68743;BMP180;55725;42.758;26.702;2023-02-23T03:08:57;99274.00;;;2.50
68743;BMP180;55725;42.758;26.702;2023-02-23T03:15:54;99281.00;;;2.50
68743;BMP180;55725;42.758;26.702;2023-02-23T03:18:05;99268.00;;;2.70
68743;BMP180;55725;42.758;26.702;2023-02-23T03:26:20;99279.00;;;2.40
68743;BMP180;55725;42.758;26.702;2023-02-23T03:28:24;99274.00;;;2.50
68743;BMP180;55725;42.758;26.702;2023-02-23T03:32:30;99291.00;;;2.70
68743;BMP180;55725;42.758;26.702;2023-02-23T03:34:39;99285.00;;;2.20
68743;BMP180;55725;42.758;26.702;2023-02-23T03:36:41;99292.00;;;2.10
68743;BMP180;55725;42.758;26.702;2023-02-23T03:38:46;99289.00;;;2.00
68743;BMP180;55725;42.758;26.702;2023-02-23T03:40:47;99289.00;;;2.30
68743;BMP180;55725;42.758;26.702;2023-02-23T03:42:46;99293.00;;;2.00
68743;BMP180;55725;42.758;26.702;2023-02-23T03:44:47;99300.00;;;2.00
68743;BMP180;55725;42.758;26.702;2023-02-23T03:46:47;99295.00;;;2.80
68743;BMP180;55725;42.758;26.702;2023-02-23T03:48:47;99305.00;;;2.40
68743;BMP180;55725;42.758;26.702;2023-02-23T03:50:54;99295.00;;;2.60
68743;BMP180;55725;42.758;26.702;2023-02-23T03:52:55;99298.00;;;2.20
68743;BMP180;55725;42.758;26.702;2023-02-23T03:54:56;99300.00;;;2.60
68743;BMP180;55725;42.758;26.702;2023-02-23T03:56:57;99307.00;;;2.50
68743;BMP180;55725;42.758;26.702;2023-02-23T03:58:58;99314.00;;;1.90
68743;BMP180;55725;42.758;26.702;2023-02-23T04:00:58;99295.00;;;1.50
68743;BMP180;55725;42.758;26.702;2023-02-23T04:02:58;99320.00;;;2.00
68743;BMP180;55725;42.758;26.702;2023-02-23T04:04:58;99307.00;;;2.40
68743;BMP180;55725;42.758;26.702;2023-02-23T04:06:59;99299.00;;;2.00
68743;BMP180;55725;42.758;26.702;2023-02-23T04:08:59;99306.00;;;1.70
68743;BMP180;55725;42.758;26.702;2023-02-23T04:11:01;99298.00;;;1.70
68743;BMP180;55725;42.758;26.702;2023-02-23T04:13:06;99298.00;;;2.30
68743;BMP180;55725;42.758;26.702;2023-02-23T04:16:37;99285.00;;;2.20
68743;BMP180;55725;42.758;26.702;2023-02-23T04:18:28;99297.00;;;1.70
68743;BMP180;55725;42.758;26.702;2023-02-23T04:20:09;99295.00;;;2.30
68743;BMP180;55725;42.758;26.702;2023-02-23T04:21:51;99298.00;;;1.90
68743;BMP180;55725;42.758;26.702;2023-02-23T04:23:31;99292.00;;;2.60
68743;BMP180;55725;42.758;26.702;2023-02-23T04:25:12;99300.00;;;2.10
68743;BMP180;55725;42.758;26.702;2023-02-23T04:26:53;99292.00;;;1.50
68743;BMP180;55725;42.758;26.702;2023-02-23T04:28:33;99293.00;;;2.10
68743;BMP180;55725;42.758;26.702;2023-02-23T04:30:14;99289.00;;;2.90
68743;BMP180;55725;42.758;26.702;2023-02-23T04:31:54;99295.00;;;2.20
68743;BMP180;55725;42.758;26.702;2023-02-23T04:33:35;99287.00;;;2.20
68743;BMP180;55725;42.758;26.702;2023-02-23T04:35:15;99292.00;;;2.00
68743;BMP180;55725;42.758;26.702;2023-02-23T04:36:55;99300.00;;;1.60
68743;BMP180;55725;42.758;26.702;2023-02-23T04:38:36;99290.00;;;1.50
68743;BMP180;55725;42.758;26.702;2023-02-23T04:40:16;99296.00;;;1.40
68743;BMP180;55725;42.758;26.702;2023-02-23T04:41:56;99305.00;;;2.00
68743;BMP180;55725;42.758;26.702;2023-02-23T04:43:37;99305.00;;;2.50
68743;BMP180;55725;42.758;26.702;2023-02-23T04:45:17;99309.00;;;1.80
68743;BMP180;55725;42.758;26.702;2023-02-23T04:46:57;99311.00;;;1.60
68743;BMP180;55725;42.758;26.702;2023-02-23T04:48:38;99310.00;;;1.80
68743;BMP180;55725;42.758;26.702;2023-02-23T04:50:19;99310.00;;;2.30
68743;BMP180;55725;42.758;26.702;2023-02-23T04:51:59;99309.00;;;1.80
68743;BMP180;55725;42.758;26.702;2023-02-23T04:53:39;99311.00;;;1.50
68743;BMP180;55725;42.758;26.702;2023-02-23T04:55:20;99312.00;;;1.70
68743;BMP180;55725;42.758;26.702;2023-02-23T04:57:01;99312.00;;;2.00
68743;BMP180;55725;42.758;26.702;2023-02-23T04:58:41;99312.00;;;1.60
68743;BMP180;55725;42.758;26.702;2023-02-23T05:00:22;99307.00;;;1.50
68743;BMP180;55725;42.758;26.702;2023-02-23T05:02:02;99315.00;;;1.50
68743;BMP180;55725;42.758;26.702;2023-02-23T05:03:42;99309.00;;;2.00
68743;BMP180;55725;42.758;26.702;2023-02-23T05:05:23;99300.00;;;1.80
68743;BMP180;55725;42.758;26.702;2023-02-23T05:07:03;99308.00;;;2.10
68743;BMP180;55725;42.758;26.702;2023-02-23T05:08:43;99306.00;;;2.00
68743;BMP180;55725;42.758;26.702;2023-02-23T05:10:24;99312.00;;;2.10
68743;BMP180;55725;42.758;26.702;2023-02-23T05:12:04;99315.00;;;1.90
68743;BMP180;55725;42.758;26.702;2023-02-23T05:13:45;99307.00;;;2.20
68743;BMP180;55725;42.758;26.702;2023-02-23T05:15:25;99313.00;;;2.20
68743;BMP180;55725;42.758;26.702;2023-02-23T05:17:06;99315.00;;;2.10
68743;BMP180;55725;42.758;26.702;2023-02-23T05:18:47;99310.00;;;2.30
68743;BMP180;55725;42.758;26.702;2023-02-23T05:20:27;99314.00;;;2.30
68743;BMP180;55725;42.758;26.702;2023-02-23T05:22:08;99322.00;;;2.60
68743;BMP180;55725;42.758;26.702;2023-02-23T05:23:51;99320.00;;;2.50
68743;BMP180;55725;42.758;26.702;2023-02-23T05:25:31;99318.00;;;2.70
68743;BMP180;55725;42.758;26.702;2023-02-23T05:27:12;99316.00;;;2.80
68743;BMP180;55725;42.758;26.702;2023-02-23T05:28:56;99312.00;;;2.80
68743;BMP180;55725;42.758;26.702;2023-02-23T05:30:37;99318.00;;;3.10
68743;BMP180;55725;42.758;26.702;2023-02-23T05:32:17;99332.00;;;3.20
68743;BMP180;55725;42.758;26.702;2023-02-23T05:33:57;99328.00;;;2.80
68743;BMP180;55725;42.758;26.702;2023-02-23T05:35:38;99333.00;;;3.00
68743;BMP180;55725;42.758;26.702;2023-02-23T05:37:19;99322.00;;;3.10
68743;BMP180;55725;42.758;26.702;2023-02-23T05:38:59;99331.00;;;3.10
68743;BMP180;55725;42.758;26.702;2023-02-23T05:40:39;99340.00;;;3.30
68743;BMP180;55725;42.758;26.702;2023-02-23T05:42:20;99349.00;;;3.50
68743;BMP180;55725;42.758;26.702;2023-02-23T05:44:00;99341.00;;;3.10
68743;BMP180;55725;42.758;26.702;2023-02-23T05:45:41;99352.00;;;3.70
68743;BMP180;55725;42.758;26.702;2023-02-23T05:47:22;99356.00;;;4.20
68743;BMP180;55725;42.758;26.702;2023-02-23T05:49:02;99348.00;;;3.80
68743;BMP180;55725;42.758;26.702;2023-02-23T05:50:43;99355.00;;;4.00
68743;BMP180;55725;42.758;26.702;2023-02-23T05:52:23;99368.00;;;4.00
68743;BMP180;55725;42.758;26.702;2023-02-23T05:54:04;99365.00;;;3.70
68743;BMP180;55725;42.758;26.702;2023-02-23T05:55:44;99367.00;;;4.10
68743;BMP180;55725;42.758;26.702;2023-02-23T05:57:24;99374.00;;;4.30
68743;BMP180;55725;42.758;26.702;2023-02-23T05:59:05;99380.00;;;4.00
68743;BMP180;55725;42.758;26.702;2023-02-23T06:00:45;99372.00;;;4.30
68743;BMP180;55725;42.758;26.702;2023-02-23T06:02:25;99376.00;;;4.30
68743;BMP180;55725;42.758;26.702;2023-02-23T06:04:06;99377.00;;;4.30
68743;BMP180;55725;42.758;26.702;2023-02-23T06:05:50;99378.00;;;4.20
68743;BMP180;55725;42.758;26.702;2023-02-23T06:07:30;99387.00;;;5.00
68743;BMP180;55725;42.758;26.702;2023-02-23T06:09:11;99389.00;;;5.10
68743;BMP180;55725;42.758;26.702;2023-02-23T06:10:51;99385.00;;;4.80
68743;BMP180;55725;42.758;26.702;2023-02-23T06:12:31;99385.00;;;4.90
68743;BMP180;55725;42.758;26.702;2023-02-23T06:14:12;99382.00;;;4.90
68743;BMP180;55725;42.758;26.702;2023-02-23T06:15:52;99369.00;;;4.80
68743;BMP180;55725;42.758;26.702;2023-02-23T06:17:33;99379.00;;;5.10
68743;BMP180;55725;42.758;26.702;2023-02-23T06:19:14;99391.00;;;5.40
68743;BMP180;55725;42.758;26.702;2023-02-23T06:20:54;99398.00;;;5.50
68743;BMP180;55725;42.758;26.702;2023-02-23T06:22:38;99396.00;;;5.00
68743;BMP180;55725;42.758;26.702;2023-02-23T06:24:18;99395.00;;;5.40
68743;BMP180;55725;42.758;26.702;2023-02-23T06:25:59;99396.00;;;5.80
68743;BMP180;55725;42.758;26.702;2023-02-23T06:27:39;99399.00;;;5.40
68743;BMP180;55725;42.758;26.702;2023-02-23T06:29:21;99389.00;;;5.60
68743;BMP180;55725;42.758;26.702;2023-02-23T06:31:02;99392.00;;;5.60
68743;BMP180;55725;42.758;26.702;2023-02-23T06:32:42;99401.00;;;5.60
68743;BMP180;55725;42.758;26.702;2023-02-23T06:34:22;99357.00;;;6.00
68743;BMP180;55725;42.758;26.702;2023-02-23T06:36:03;99365.00;;;5.80
68743;BMP180;55725;42.758;26.702;2023-02-23T06:37:43;99385.00;;;5.80
68743;BMP180;55725;42.758;26.702;2023-02-23T06:39:23;99381.00;;;5.70
68743;BMP180;55725;42.758;26.702;2023-02-23T06:41:10;99374.00;;;6.30
68743;BMP180;55725;42.758;26.702;2023-02-23T06:42:50;99350.00;;;6.60
68743;BMP180;55725;42.758;26.702;2023-02-23T06:44:30;99350.00;;;6.90
68743;BMP180;55725;42.758;26.702;2023-02-23T06:46:14;99363.00;;;7.10
68743;BMP180;55725;42.758;26.702;2023-02-23T06:47:54;99400.00;;;6.80
68743;BMP180;55725;42.758;26.702;2023-02-23T06:49:36;99385.00;;;6.10
68743;BMP180;55725;42.758;26.702;2023-02-23T06:51:16;99390.00;;;6.30
68743;BMP180;55725;42.758;26.702;2023-02-23T06:52:56;99369.00;;;6.80
68743;BMP180;55725;42.758;26.702;2023-02-23T06:54:38;99348.00;;;7.20
68743;BMP180;55725;42.758;26.702;2023-02-23T06:56:19;99377.00;;;7.30
68743;BMP180;55725;42.758;26.702;2023-02-23T06:57:59;99353.00;;;7.00
68743;BMP180;55725;42.758;26.702;2023-02-23T06:59:39;99349.00;;;7.20
68743;BMP180;55725;42.758;26.702;2023-02-23T07:01:20;99372.00;;;7.00
68743;BMP180;55725;42.758;26.702;2023-02-23T07:03:00;99386.00;;;7.10
68743;BMP180;55725;42.758;26.702;2023-02-23T07:04:40;99343.00;;;7.10
68743;BMP180;55725;42.758;26.702;2023-02-23T07:06:21;99361.00;;;7.50
68743;BMP180;55725;42.758;26.702;2023-02-23T07:08:01;99376.00;;;7.50
68743;BMP180;55725;42.758;26.702;2023-02-23T07:09:41;99409.00;;;7.50
68743;BMP180;55725;42.758;26.702;2023-02-23T07:11:24;99380.00;;;7.80
68743;BMP180;55725;42.758;26.702;2023-02-23T07:13:04;99400.00;;;7.60
68743;BMP180;55725;42.758;26.702;2023-02-23T07:14:45;99402.00;;;7.20
68743;BMP180;55725;42.758;26.702;2023-02-23T07:16:26;99402.00;;;7.10
68743;BMP180;55725;42.758;26.702;2023-02-23T07:18:07;99392.00;;;7.20
68743;BMP180;55725;42.758;26.702;2023-02-23T07:19:47;99410.00;;;7.80
68743;BMP180;55725;42.758;26.702;2023-02-23T07:21:27;99413.00;;;8.00
68743;BMP180;55725;42.758;26.702;2023-02-23T07:23:08;99418.00;;;8.00
68743;BMP180;55725;42.758;26.702;2023-02-23T07:24:48;99412.00;;;7.90
68743;BMP180;55725;42.758;26.702;2023-02-23T07:26:28;99415.00;;;7.70
68743;BMP180;55725;42.758;26.702;2023-02-23T07:28:09;99420.00;;;7.80
68743;BMP180;55725;42.758;26.702;2023-02-23T07:29:49;99428.00;;;8.10
68743;BMP180;55725;42.758;26.702;2023-02-23T07:31:29;99421.00;;;7.80
68743;BMP180;55725;42.758;26.702;2023-02-23T07:33:10;99419.00;;;8.00
68743;BMP180;55725;42.758;26.702;2023-02-23T07:34:50;99412.00;;;8.10
68743;BMP180;55725;42.758;26.702;2023-02-23T07:36:30;99421.00;;;8.20
68743;BMP180;55725;42.758;26.702;2023-02-23T07:38:11;99429.00;;;8.30
68743;BMP180;55725;42.758;26.702;2023-02-23T07:39:52;99424.00;;;8.40
68743;BMP180;55725;42.758;26.702;2023-02-23T07:41:32;99420.00;;;8.70
68743;BMP180;55725;42.758;26.702;2023-02-23T07:43:13;99428.00;;;8.70
68743;BMP180;55725;42.758;26.702;2023-02-23T07:44:53;99427.00;;;8.80
68743;BMP180;55725;42.758;26.702;2023-02-23T07:46:33;99433.00;;;8.50
68743;BMP180;55725;42.758;26.702;2023-02-23T07:48:14;99436.00;;;8.80
68743;BMP180;55725;42.758;26.702;2023-02-23T07:49:54;99427.00;;;8.60
68743;BMP180;55725;42.758;26.702;2023-02-23T07:51:34;99424.00;;;8.80
68743;BMP180;55725;42.758;26.702;2023-02-23T07:53:14;99427.00;;;8.80
68743;BMP180;55725;42.758;26.702;2023-02-23T07:54:55;99429.00;;;8.60
68743;BMP180;55725;42.758;26.702;2023-02-23T07:56:35;99429.00;;;8.80
68743;BMP180;55725;42.758;26.702;2023-02-23T07:58:16;99429.00;;;8.90
68743;BMP180;55725;42.758;26.702;2023-02-23T07:59:56;99431.00;;;8.80
68743;BMP180;55725;42.758;26.702;2023-02-23T08:01:36;99430.00;;;9.00
68743;BMP180;55725;42.758;26.702;2023-02-23T08:03:17;99438.00;;;9.00
68743;BMP180;55725;42.758;26.702;2023-02-23T08:04:57;99423.00;;;9.20
68743;BMP180;55725;42.758;26.702;2023-02-23T08:06:38;99426.00;;;9.20
68743;BMP180;55725;42.758;26.702;2023-02-23T08:08:18;99426.00;;;9.10
68743;BMP180;55725;42.758;26.702;2023-02-23T08:09:59;99431.00;;;9.20
68743;BMP180;55725;42.758;26.702;2023-02-23T08:11:39;99430.00;;;9.40
68743;BMP180;55725;42.758;26.702;2023-02-23T08:13:20;99435.00;;;9.10
68743;BMP180;55725;42.758;26.702;2023-02-23T08:15:00;99437.00;;;9.20
68743;BMP180;55725;42.758;26.702;2023-02-23T08:16:41;99443.00;;;9.20
68743;BMP180;55725;42.758;26.702;2023-02-23T08:18:22;99438.00;;;8.90
68743;BMP180;55725;42.758;26.702;2023-02-23T08:20:02;99441.00;;;9.00
68743;BMP180;55725;42.758;26.702;2023-02-23T08:21:43;99448.00;;;9.40
68743;BMP180;55725;42.758;26.702;2023-02-23T08:23:24;99444.00;;;9.30
68743;BMP180;55725;42.758;26.702;2023-02-23T08:25:04;99445.00;;;9.40
68743;BMP180;55725;42.758;26.702;2023-02-23T08:26:45;99445.00;;;9.50
68743;BMP180;55725;42.758;26.702;2023-02-23T08:28:25;99445.00;;;9.40
68743;BMP180;55725;42.758;26.702;2023-02-23T08:30:06;99447.00;;;9.40
68743;BMP180;55725;42.758;26.702;2023-02-23T08:31:49;99443.00;;;9.40
68743;BMP180;55725;42.758;26.702;2023-02-23T08:33:30;99448.00;;;9.50
68743;BMP180;55725;42.758;26.702;2023-02-23T08:35:11;99457.00;;;9.60
68743;BMP180;55725;42.758;26.702;2023-02-23T08:36:51;99460.00;;;9.80
68743;BMP180;55725;42.758;26.702;2023-02-23T08:38:33;99462.00;;;9.90
68743;BMP180;55725;42.758;26.702;2023-02-23T08:40:15;99465.00;;;9.80
68743;BMP180;55725;42.758;26.702;2023-02-23T08:41:57;99462.00;;;9.70
68743;BMP180;55725;42.758;26.702;2023-02-23T08:43:37;99467.00;;;9.60
68743;BMP180;55725;42.758;26.702;2023-02-23T08:45:18;99451.00;;;9.80
68743;BMP180;55725;42.758;26.702;2023-02-23T08:46:58;99455.00;;;10.10
68743;BMP180;55725;42.758;26.702;2023-02-23T08:48:40;99466.00;;;10.50
68743;BMP180;55725;42.758;26.702;2023-02-23T08:50:20;99466.00;;;10.40
68743;BMP180;55725;42.758;26.702;2023-02-23T08:52:01;99463.00;;;10.20
68743;BMP180;55725;42.758;26.702;2023-02-23T08:53:41;99467.00;;;9.80
68743;BMP180;55725;42.758;26.702;2023-02-23T08:55:21;99462.00;;;10.20
68743;BMP180;55725;42.758;26.702;2023-02-23T08:57:02;99468.00;;;10.20
68743;BMP180;55725;42.758;26.702;2023-02-23T08:58:43;99465.00;;;10.10
68743;BMP180;55725;42.758;26.702;2023-02-23T09:00:23;99476.00;;;10.10
68743;BMP180;55725;42.758;26.702;2023-02-23T09:02:04;99468.00;;;10.30
68743;BMP180;55725;42.758;26.702;2023-02-23T09:03:44;99465.00;;;10.10
68743;BMP180;55725;42.758;26.702;2023-02-23T09:05:24;99471.00;;;10.20
68743;BMP180;55725;42.758;26.702;2023-02-23T09:07:05;99467.00;;;10.30
68743;BMP180;55725;42.758;26.702;2023-02-23T09:08:45;99474.00;;;10.40
68743;BMP180;55725;42.758;26.702;2023-02-23T09:10:25;99477.00;;;10.30
68743;BMP180;55725;42.758;26.702;2023-02-23T09:12:08;99471.00;;;10.10
68743;BMP180;55725;42.758;26.702;2023-02-23T09:13:48;99472.00;;;10.00
68743;BMP180;55725;42.758;26.702;2023-02-23T09:15:29;99476.00;;;10.40
68743;BMP180;55725;42.758;26.702;2023-02-23T09:17:09;99477.00;;;10.40
68743;BMP180;55725;42.758;26.702;2023-02-23T09:18:50;99477.00;;;10.10
68743;BMP180;55725;42.758;26.702;2023-02-23T09:20:31;99484.00;;;10.10
68743;BMP180;55725;42.758;26.702;2023-02-23T09:22:11;99481.00;;;10.00
68743;BMP180;55725;42.758;26.702;2023-02-23T09:23:51;99496.00;;;10.30
68743;BMP180;55725;42.758;26.702;2023-02-23T09:25:38;99502.00;;;10.20
68743;BMP180;55725;42.758;26.702;2023-02-23T09:27:18;99494.00;;;10.10
68743;BMP180;55725;42.758;26.702;2023-02-23T09:28:59;99504.00;;;10.30
68743;BMP180;55725;42.758;26.702;2023-02-23T09:30:40;99493.00;;;10.20
68743;BMP180;55725;42.758;26.702;2023-02-23T09:32:21;99501.00;;;10.20
68743;BMP180;55725;42.758;26.702;2023-02-23T09:34:01;99496.00;;;10.10
68743;BMP180;55725;42.758;26.702;2023-02-23T09:35:42;99499.00;;;10.20
68743;BMP180;55725;42.758;26.702;2023-02-23T09:37:22;99503.00;;;10.30
68743;BMP180;55725;42.758;26.702;2023-02-23T09:39:04;99501.00;;;10.50
68743;BMP180;55725;42.758;26.702;2023-02-23T09:40:48;99504.00;;;10.40
68743;BMP180;55725;42.758;26.702;2023-02-23T09:42:40;99505.00;;;10.60
68743;BMP180;55725;42.758;26.702;2023-02-23T09:44:26;99496.00;;;10.70
68743;BMP180;55725;42.758;26.702;2023-02-23T09:49:39;99479.00;;;11.20
68743;BMP180;55725;42.758;26.702;2023-02-23T09:51:20;99471.00;;;11.20
68743;BMP180;55725;42.758;26.702;2023-02-23T09:53:02;99482.00;;;11.70
68743;BMP180;55725;42.758;26.702;2023-02-23T09:54:44;99489.00;;;11.50
68743;BMP180;55725;42.758;26.702;2023-02-23T09:56:30;99489.00;;;11.50
68743;BMP180;55725;42.758;26.702;2023-02-23T09:58:22;99492.00;;;11.30
68743;BMP180;55725;42.758;26.702;2023-02-23T10:00:11;99475.00;;;11.50
68743;BMP180;55725;42.758;26.702;2023-02-23T10:03:45;99465.00;;;12.00
68743;BMP180;55725;42.758;26.702;2023-02-23T10:05:27;99469.00;;;11.70
68743;BMP180;55725;42.758;26.702;2023-02-23T10:07:25;99467.00;;;11.50
68743;BMP180;55725;42.758;26.702;2023-02-23T10:22:17;99352.00;;;13.30
68743;BMP180;55725;42.758;26.702;2023-02-23T10:24:00;99473.00;;;12.50
68743;BMP180;55725;42.758;26.702;2023-02-23T10:25:43;99466.00;;;12.10
68743;BMP180;55725;42.758;26.702;2023-02-23T10:27:28;99461.00;;;11.90
68743;BMP180;55725;42.758;26.702;2023-02-23T10:29:31;99462.00;;;12.40
68743;BMP180;55725;42.758;26.702;2023-02-23T10:31:35;99467.00;;;12.70
68743;BMP180;55725;42.758;26.702;2023-02-23T10:33:19;99356.00;;;13.00
68743;BMP180;55725;42.758;26.702;2023-02-23T10:35:00;99352.00;;;14.30
68743;BMP180;55725;42.758;26.702;2023-02-23T10:36:42;99465.00;;;13.90
68743;BMP180;55725;42.758;26.702;2023-02-23T10:38:23;99361.00;;;13.60
68743;BMP180;55725;42.758;26.702;2023-02-23T10:40:03;99387.00;;;14.70
68743;BMP180;55725;42.758;26.702;2023-02-23T10:41:44;99366.00;;;14.20
68743;BMP180;55725;42.758;26.702;2023-02-23T10:43:25;99374.00;;;13.30
68743;BMP180;55725;42.758;26.702;2023-02-23T10:45:11;99370.00;;;14.90
68743;BMP180;55725;42.758;26.702;2023-02-23T10:47:05;99379.00;;;13.70